Time;durP1;ratioP1;P1;durP2;ratioP2;P2;SDS_P1;SDS_P2;PMS_P1;PMS_P2;Temp;Humidity;BMP_temperature;BMP_pressure;BME280_temperature;BME280_humidity;BME280_pressure;Samples;Min_cycle;Max_cycle;Signal;HPM_P1;HPM_P2
2022/12/01 00:02:13;;;;;;;12.90;5.43;;;;;;;-141.28;100.00;51406.00;5100511;28;20449;-77
2022/12/01 00:05:01;;;;;;;15.93;4.90;;;;;;;-141.28;100.00;51468.81;5099212;28;20472;-73
2022/12/01 00:07:50;;;;;;;19.40;7.60;;;;;;;-141.28;100.00;51343.16;5101978;28;20445;-72
2022/12/01 00:10:27;;;;;;;7.73;3.20;;;;;;;-141.28;100.00;51445.25;5095919;28;20439;-74
2022/12/01 00:12:57;;;;;;;6.70;1.90;;;;;;;-141.28;100.00;51445.25;5098235;28;20464;-76
2022/12/01 00:15:27;;;;;;;9.93;1.70;;;;;;;-141.28;100.00;51508.09;5093485;28;20453;-76
2022/12/01 00:17:54;;;;;;;8.33;2.30;;;;;;;-141.28;100.00;51563.06;5092867;28;20488;-76
2022/12/01 00:20:22;;;;;;;3.60;1.07;;;;;;;-141.28;100.00;51629.81;5092893;28;20469;-74
2022/12/01 00:22:49;;;;;;;7.07;1.67;;;;;;;-141.28;100.00;51669.09;5090436;28;20445;-72
2022/12/01 00:25:18;;;;;;;6.70;1.70;;;;;;;-141.28;100.00;51692.66;5108459;28;20485;-76
2022/12/01 00:27:48;;;;;;;5.87;1.90;;;;;;;-141.28;100.00;51623.94;5109811;28;20454;-74
2022/12/01 00:30:18;;;;;;;2.90;0.93;;;;;;;-141.28;100.00;51684.81;5110478;28;20472;-73
2022/12/01 00:32:46;;;;;;;5.80;1.43;;;;;;;-141.28;100.00;51779.06;5118854;28;21007;-72
2022/12/01 00:35:15;;;;;;;1.63;1.33;;;;;;;-141.28;100.00;51786.91;5105773;28;20456;-75
2022/12/01 00:37:43;;;;;;;0.93;0.67;;;;;;;-141.28;100.00;51775.13;5093166;28;20471;-74
2022/12/01 00:40:12;;;;;;;1.53;1.03;;;;;;;-141.28;100.00;51806.53;5092541;28;20437;-76
2022/12/01 00:42:39;;;;;;;5.30;1.50;;;;;;;-141.28;100.00;51814.41;5092258;28;20955;-80
2022/12/01 00:45:07;;;;;;;2.93;1.40;;;;;;;-141.28;100.00;51837.97;5092118;28;20502;-73
2022/12/01 00:47:35;;;;;;;5.47;1.60;;;;;;;-141.28;100.00;51834.03;5092568;28;20442;-75
2022/12/01 00:50:02;;;;;;;2.00;1.30;;;;;;;-141.28;100.00;51861.53;5091929;28;20438;-75
2022/12/01 00:52:29;;;;;;;6.27;1.93;;;;;;;-141.28;100.00;51904.72;5092148;28;20469;-77
2022/12/01 00:54:56;;;;;;;5.10;2.03;;;;;;;-141.28;100.00;51890.97;5091764;28;20463;-74
2022/12/01 00:57:24;;;;;;;10.47;1.73;;;;;;;-141.28;100.00;51834.03;5080407;28;20956;-76
2022/12/01 00:59:52;;;;;;;6.30;1.80;;;;;;;-141.28;100.00;51900.81;5090624;28;20442;-77
2022/12/01 01:02:20;;;;;;;3.67;0.90;;;;;;;-141.28;100.00;51900.81;5091945;28;20434;-75
2022/12/01 01:04:49;;;;;;;5.67;1.50;;;;;;;-141.28;100.00;51914.56;5091800;28;20445;-78
2022/12/01 01:07:17;;;;;;;3.63;1.70;;;;;;;-141.28;100.00;51932.22;5091755;28;20516;-75
2022/12/01 01:09:45;;;;;;;6.43;1.80;;;;;;;-141.28;100.00;51928.28;5078296;28;20830;-74
2022/12/01 01:12:12;;;;;;;4.63;2.10;;;;;;;-141.28;100.00;51985.25;5091513;28;21044;-75
2022/12/01 01:14:41;;;;;;;8.57;2.47;;;;;;;-141.28;100.00;51928.28;5091839;28;20453;-74
2022/12/01 01:17:08;;;;;;;8.03;2.17;;;;;;;-141.28;100.00;51857.59;5091585;28;20875;-78
2022/12/01 01:19:35;;;;;;;14.00;2.80;;;;;;;-141.28;100.00;51896.88;5092225;28;20469;-75
2022/12/01 01:22:04;;;;;;;10.87;2.50;;;;;;;-141.28;100.00;51949.91;5091240;28;20446;-76
2022/12/01 01:24:31;;;;;;;13.23;2.43;;;;;;;-141.28;100.00;51912.59;5092404;28;20468;-76
2022/12/01 01:26:58;;;;;;;6.17;1.80;;;;;;;-141.28;100.00;51747.63;5092149;28;20481;-76
2022/12/01 01:29:25;;;;;;;9.53;2.57;;;;;;;-141.28;100.00;51814.41;5093001;28;20453;-78
2022/12/01 01:31:53;;;;;;;9.27;2.30;;;;;;;-141.28;100.00;51873.31;5092948;28;20450;-76
2022/12/01 01:34:20;;;;;;;3.20;0.87;;;;;;;-141.28;100.00;51904.72;5093137;28;20522;-77
2022/12/01 01:36:47;;;;;;;6.77;2.00;;;;;;;-141.28;100.00;51788.88;5089695;28;20484;-75
2022/12/01 01:39:17;;;;;;;6.03;1.53;;;;;;;-141.28;100.00;51857.59;5072052;28;20488;-76
2022/12/01 01:41:44;;;;;;;7.23;1.97;;;;;;;-141.28;100.00;51839.94;5087975;28;20445;-75
2022/12/01 01:44:48;;;;;;;4.07;1.77;;;;;;;-141.28;100.00;51733.88;5091454;28;20453;-77
2022/12/01 01:47:19;;;;;;;2.47;1.33;;;;;;;-141.28;100.00;51629.81;5078110;28;20477;-77
2022/12/01 01:49:47;;;;;;;5.37;1.70;;;;;;;-141.28;100.00;51661.25;5091444;28;20449;-75
2022/12/01 01:52:16;;;;;;;4.57;1.57;;;;;;;-141.28;100.00;51154.69;5091464;28;20446;-79
2022/12/01 01:54:50;;;;;;;4.50;1.60;;;;;;;-141.28;100.00;51700.50;5091086;28;20453;-78
2022/12/01 01:57:23;;;;;;;3.93;1.60;;;;;;;-141.28;100.00;51661.25;5091162;28;21316;-74
2022/12/01 01:59:54;;;;;;;2.17;1.23;;;;;;;-141.28;100.00;51663.19;5100248;28;20466;-78
2022/12/01 02:02:21;;;;;;;1.87;1.00;;;;;;;-141.28;100.00;51629.81;5095130;28;20493;-78
2022/12/01 02:04:54;;;;;;;1.03;0.93;;;;;;;-141.28;100.00;51651.41;5101645;28;20445;-76
2022/12/01 02:07:21;;;;;;;1.20;0.90;;;;;;;-141.28;100.00;51692.66;5087184;28;20522;-75
2022/12/01 02:09:49;;;;;;;1.57;1.00;;;;;;;-141.28;100.00;51455.06;5091139;28;20964;-79
2022/12/01 02:12:31;;;;;;;1.27;0.80;;;;;;;-141.28;100.00;51661.25;5084183;28;20442;-76
2022/12/01 02:15:12;;;;;;;2.07;1.30;;;;;;;-141.28;100.00;51653.38;5107931;28;20499;-75
2022/12/01 02:17:47;;;;;;;2.00;1.27;;;;;;;-141.28;100.00;51608.22;5106363;28;20476;-75
2022/12/01 02:21:02;;;;;;;2.73;1.27;;;;;;;-141.28;100.00;51570.91;5093083;28;20528;-75
2022/12/01 02:23:54;;;;;;;2.30;1.17;;;;;;;-141.28;100.00;51476.66;5057088;28;20847;-74
2022/12/01 02:26:42;;;;;;;4.27;2.10;;;;;;;-141.28;100.00;50875.91;5073233;28;21084;-75
2022/12/01 02:29:44;;;;;;;3.57;1.30;;;;;;;-141.28;100.00;51394.22;5090610;28;20966;-75
2022/12/01 02:32:19;;;;;;;4.33;1.47;;;;;;;-141.28;100.00;51378.50;5091898;28;20834;-75
2022/12/01 02:34:56;;;;;;;4.47;1.97;;;;;;;-141.28;100.00;51394.22;5091310;28;20477;-75
2022/12/01 02:37:28;;;;;;;7.87;1.47;;;;;;;-141.28;100.00;51370.66;5094324;28;20460;-76
2022/12/01 02:40:03;;;;;;;2.77;1.50;;;;;;;-141.28;100.00;51547.34;5093119;28;20476;-75
2022/12/01 02:42:52;;;;;;;5.10;1.80;;;;;;;-141.28;100.00;51661.25;5094686;28;20444;-78
2022/12/01 02:45:31;;;;;;;4.97;1.80;;;;;;;-141.28;100.00;51567.00;5096373;28;20543;-74
2022/12/01 02:48:02;;;;;;;2.50;1.10;;;;;;;-141.28;100.00;51598.41;5102405;28;20480;-74
2022/12/01 02:50:32;;;;;;;3.37;1.80;;;;;;;-141.28;100.00;51735.84;5101729;28;20461;-74
2022/12/01 02:53:01;;;;;;;1.53;0.83;;;;;;;-141.28;100.00;51696.59;5096567;28;20449;-75
2022/12/01 02:55:29;;;;;;;2.60;1.30;;;;;;;-141.28;100.00;51806.53;5094552;28;20445;-75
2022/12/01 02:57:56;;;;;;;6.57;3.13;;;;;;;-141.28;100.00;51865.47;5095771;28;20955;-76
2022/12/01 03:00:23;;;;;;;1.47;1.13;;;;;;;-141.28;100.00;51940.06;5106150;28;20449;-76
2022/12/01 03:03:14;;;;;;;2.23;0.80;;;;;;;-141.28;100.00;51920.44;5093865;28;20453;-77
2022/12/01 03:05:48;;;;;;;1.50;1.10;;;;;;;-141.28;100.00;51845.81;5094484;28;20501;-75
2022/12/01 03:08:26;;;;;;;3.10;0.93;;;;;;;-141.28;100.00;51873.31;5096361;28;20975;-75
2022/12/01 03:10:55;;;;;;;5.93;2.40;;;;;;;-141.28;100.00;51834.03;5082596;28;20489;-77
2022/12/01 03:13:32;;;;;;;18.73;5.20;;;;;;;-141.28;100.00;51869.38;5113584;28;20509;-76
2022/12/01 03:16:06;;;;;;;34.67;10.90;;;;;;;-141.28;100.00;51849.75;5097176;28;20469;-78
2022/12/01 03:18:38;;;;;;;23.63;6.53;;;;;;;-141.28;100.00;51877.25;5094223;28;20465;-76
2022/12/01 03:21:10;;;;;;;10.53;3.57;;;;;;;-141.28;100.00;51794.75;5095772;28;20473;-73
2022/12/01 03:23:42;;;;;;;3.60;2.23;;;;;;;-141.28;100.00;51908.66;5099047;28;20449;-75
2022/12/01 03:26:17;;;;;;;1.87;1.50;;;;;;;-141.28;100.00;51883.13;5087456;28;20559;-77
2022/12/01 03:28:49;;;;;;;1.80;1.53;;;;;;;-141.28;100.00;51871.34;5101116;28;20541;-77
2022/12/01 03:31:18;;;;;;;4.80;1.67;;;;;;;-141.28;100.00;51892.94;5099067;28;20453;-78
2022/12/01 03:33:52;;;;;;;8.93;4.57;;;;;;;-141.28;100.00;51855.63;5093955;28;20441;-75
2022/12/01 03:36:26;;;;;;;23.40;8.13;;;;;;;-141.28;100.00;51834.03;5093583;28;20468;-76
2022/12/01 03:38:59;;;;;;;77.07;25.07;;;;;;;-141.28;100.00;51826.19;5094389;28;20546;-74
2022/12/01 03:41:37;;;;;;;126.20;42.27;;;;;;;-141.28;100.00;51873.31;5093206;28;20445;-76
2022/12/01 03:44:12;;;;;;;9.00;2.77;;;;;;;-141.28;100.00;51775.13;5106899;28;20856;-75
2022/12/01 03:46:47;;;;;;;17.10;3.33;;;;;;;-141.28;100.00;51759.41;5093332;28;20998;-76
2022/12/01 03:49:18;;;;;;;21.40;4.80;;;;;;;-141.28;100.00;51814.41;5096516;28;20513;-74
2022/12/01 03:51:54;;;;;;;43.97;15.30;;;;;;;-141.28;100.00;51828.16;5110327;28;20983;-75
2022/12/01 03:54:28;;;;;;;36.50;12.23;;;;;;;-141.28;100.00;51802.63;5092961;28;20453;-75
2022/12/01 03:56:59;;;;;;;7.80;3.13;;;;;;;-141.28;100.00;51841.88;5093403;28;20448;-75
2022/12/01 03:59:29;;;;;;;14.30;2.50;;;;;;;-141.28;100.00;51822.25;5093161;28;20527;-77
2022/12/01 04:01:57;;;;;;;13.83;3.87;;;;;;;-141.28;100.00;51837.97;5092773;28;20455;-76
2022/12/01 04:04:26;;;;;;;11.80;6.57;;;;;;;-141.28;100.00;51877.25;5079496;28;20451;-75
2022/12/01 04:06:53;;;;;;;15.30;6.97;;;;;;;-141.28;100.00;51916.50;5083036;28;20477;-74
2022/12/01 04:09:20;;;;;;;8.00;4.23;;;;;;;-141.28;100.00;51904.72;5092976;28;20448;-76
2022/12/01 04:14:31;;;;;;;20.70;9.40;;;;;;;-141.28;100.00;51922.41;5092888;28;20518;-76
2022/12/01 04:16:58;;;;;;;13.30;6.60;;;;;;;-141.28;100.00;51944.00;5093234;28;20464;-77
2022/12/01 04:19:27;;;;;;;14.83;6.57;;;;;;;-141.28;100.00;51993.09;5092421;28;20823;-75
2022/12/01 04:21:54;;;;;;;22.40;11.10;;;;;;;-141.28;100.00;52050.03;5093316;28;20496;-74
2022/12/01 04:24:22;;;;;;;22.53;10.63;;;;;;;-141.28;100.00;52034.34;5111101;28;20454;-76
2022/12/01 04:26:50;;;;;;;8.03;3.27;;;;;;;-141.28;100.00;52073.63;5102416;28;20485;-78
2022/12/01 04:29:17;;;;;;;3.83;2.00;;;;;;;-141.28;100.00;52132.53;5094977;28;20456;-74
2022/12/01 04:31:44;;;;;;;4.37;2.70;;;;;;;-141.28;100.00;52128.59;5097568;28;20840;-76
2022/12/01 04:34:11;;;;;;;10.27;5.03;;;;;;;-141.28;100.00;52132.53;5109028;28;20417;-75
2022/12/01 04:36:39;;;;;;;13.13;7.33;;;;;;;-141.28;100.00;52144.31;5105829;28;20449;-76
2022/12/01 04:39:07;;;;;;;18.37;7.73;;;;;;;-141.28;100.00;52150.19;5106638;28;20445;-76
2022/12/01 04:41:34;;;;;;;5.83;3.33;;;;;;;-141.28;100.00;52132.53;5103337;28;20769;-76
2022/12/01 04:44:02;;;;;;;3.77;2.47;;;;;;;-141.28;100.00;52132.53;5092595;28;20478;-76
2022/12/01 04:46:32;;;;;;;5.87;3.20;;;;;;;-141.28;100.00;51794.75;5092091;28;20458;-78
2022/12/01 04:48:59;;;;;;;5.27;3.37;;;;;;;-141.28;100.00;52114.84;5092963;28;20442;-76
2022/12/01 04:51:26;;;;;;;3.63;1.43;;;;;;;-141.28;100.00;52167.88;5092568;28;20508;-74
2022/12/01 04:53:55;;;;;;;3.30;1.97;;;;;;;-141.28;100.00;52160.03;5092622;28;20476;-74
2022/12/01 04:56:22;;;;;;;6.90;4.13;;;;;;;-141.28;100.00;52097.19;5092734;28;20452;-75
2022/12/01 04:58:50;;;;;;;24.77;10.63;;;;;;;-141.28;100.00;52097.19;5092088;28;20945;-74
2022/12/01 05:01:19;;;;;;;15.57;7.73;;;;;;;-141.28;100.00;52105.03;5092412;28;20510;-78
2022/12/01 05:03:49;;;;;;;10.53;5.57;;;;;;;-141.28;100.00;52077.53;5091810;28;20446;-79
2022/12/01 05:06:18;;;;;;;12.70;5.40;;;;;;;-141.28;100.00;52018.63;5093722;28;20504;-77
2022/12/01 05:08:45;;;;;;;2.37;1.87;;;;;;;-141.28;100.00;52034.34;5082120;28;20461;-78
2022/12/01 05:11:15;;;;;;;6.27;2.77;;;;;;;-141.28;100.00;51979.34;5095235;28;20831;-76
2022/12/01 05:13:43;;;;;;;11.33;5.27;;;;;;;-141.28;100.00;51985.25;5099749;28;20964;-77
2022/12/01 05:16:13;;;;;;;15.57;6.27;;;;;;;-141.28;100.00;51993.09;5094218;28;20457;-79
2022/12/01 05:18:41;;;;;;;13.27;5.37;;;;;;;-141.28;100.00;51928.28;5095786;28;20488;-75
2022/12/01 05:21:09;;;;;;;10.17;4.23;;;;;;;-141.28;100.00;51920.44;5105542;28;20465;-78
2022/12/01 05:23:37;;;;;;;6.33;2.53;;;;;;;-141.28;100.00;51918.47;5092077;28;20477;-75
2022/12/01 05:26:06;;;;;;;5.57;3.30;;;;;;;-141.28;100.00;51932.22;5095575;28;20449;-74
2022/12/01 05:28:37;;;;;;;2.20;1.50;;;;;;;-141.28;100.00;51341.19;5097621;28;20489;-76
2022/12/01 05:31:04;;;;;;;3.90;1.70;;;;;;;-141.28;100.00;51873.31;5091752;28;20477;-73
2022/12/01 05:33:31;;;;;;;6.50;3.30;;;;;;;-141.28;100.00;51920.44;5116966;28;20527;-74
2022/12/01 05:35:59;;;;;;;7.13;3.10;;;;;;;-141.28;100.00;51928.28;5092534;28;20442;-74
2022/12/01 05:38:28;;;;;;;11.50;4.43;;;;;;;-141.28;100.00;51936.16;5091503;28;21029;-74
2022/12/01 05:40:56;;;;;;;35.20;17.57;;;;;;;-141.28;100.00;51967.56;5091820;28;20449;-76
2022/12/01 05:43:24;;;;;;;12.70;5.87;;;;;;;-141.28;100.00;51947.94;5091710;28;20811;-75
2022/12/01 05:45:54;;;;;;;6.10;3.47;;;;;;;-141.28;100.00;51951.84;5102606;28;20451;-77
2022/12/01 05:48:23;;;;;;;8.07;1.70;;;;;;;-141.28;100.00;51979.34;5115543;28;20484;-75
2022/12/01 05:50:50;;;;;;;2.10;1.53;;;;;;;-141.28;100.00;52004.88;5099527;28;20461;-75
2022/12/01 05:53:17;;;;;;;1.40;1.20;;;;;;;-141.28;100.00;51991.13;5091873;28;20441;-76
2022/12/01 05:55:45;;;;;;;2.00;1.50;;;;;;;-141.28;100.00;52022.56;5091000;28;20459;-76
2022/12/01 05:58:12;;;;;;;5.90;2.40;;;;;;;-141.28;100.00;51975.44;5099344;28;20452;-76
2022/12/01 06:00:40;;;;;;;5.40;2.53;;;;;;;-141.28;100.00;52022.56;5110522;28;20879;-78
2022/12/01 06:03:09;;;;;;;3.20;1.30;;;;;;;-141.28;100.00;52108.97;5102976;28;20449;-76
2022/12/01 06:05:36;;;;;;;17.57;6.50;;;;;;;-141.28;100.00;51959.72;5090965;28;20449;-77
2022/12/01 06:08:03;;;;;;;17.13;6.50;;;;;;;-141.28;100.00;51890.97;5093778;28;20493;-77
2022/12/01 06:10:31;;;;;;;49.07;19.03;;;;;;;-141.28;100.00;52116.81;5091375;28;20454;-77
2022/12/01 06:12:59;;;;;;;19.53;9.07;;;;;;;-141.28;100.00;52101.09;5091085;28;20438;-75
2022/12/01 06:15:26;;;;;;;10.33;3.87;;;;;;;-141.28;100.00;52077.53;5091106;28;20510;-77
2022/12/01 06:17:54;;;;;;;3.93;1.73;;;;;;;-141.28;100.00;52026.47;5081158;28;20473;-78
2022/12/01 06:20:23;;;;;;;2.40;1.60;;;;;;;-141.28;100.00;52120.75;5094512;28;20991;-75
2022/12/01 06:22:52;;;;;;;3.07;2.00;;;;;;;-141.28;100.00;52116.81;5108447;28;20948;-80
2022/12/01 06:25:23;;;;;;;2.90;1.90;;;;;;;-141.28;100.00;52093.25;5095018;28;20532;-75
2022/12/01 06:27:50;;;;;;;2.63;1.60;;;;;;;-141.28;100.00;52105.03;5094501;28;20555;-76
2022/12/01 06:30:20;;;;;;;3.57;1.90;;;;;;;-141.28;100.00;52148.25;5094908;28;20955;-77
2022/12/01 06:32:47;;;;;;;3.47;1.57;;;;;;;-141.28;100.00;52148.25;5100349;28;20497;-77
2022/12/01 06:35:15;;;;;;;4.87;2.10;;;;;;;-141.28;100.00;52105.03;5102516;28;20880;-77
2022/12/01 06:37:43;;;;;;;4.53;3.20;;;;;;;-141.28;100.00;52097.19;5094359;28;20461;-78
2022/12/01 06:40:12;;;;;;;11.00;3.87;;;;;;;-141.28;100.00;52160.03;5094520;28;20873;-75
2022/12/01 06:42:39;;;;;;;7.53;4.47;;;;;;;-141.28;100.00;52160.03;5096283;28;20454;-79
2022/12/01 06:45:07;;;;;;;4.03;2.00;;;;;;;-141.28;100.00;51676.94;5106928;28;20880;-76
2022/12/01 06:47:34;;;;;;;2.43;1.53;;;;;;;-141.28;100.00;52144.31;5088187;28;20934;-73
2022/12/01 06:50:01;;;;;;;5.60;2.57;;;;;;;-141.28;100.00;52108.97;5102299;28;20450;-75
2022/12/01 06:52:29;;;;;;;10.63;5.90;;;;;;;-141.28;100.00;52030.41;5098341;28;20457;-76
2022/12/01 06:54:59;;;;;;;7.53;4.90;;;;;;;-141.28;100.00;52160.03;5097080;28;20449;-76
2022/12/01 06:57:27;;;;;;;9.07;2.80;;;;;;;-141.28;100.00;52120.75;5085071;28;20894;-76
2022/12/01 06:59:54;;;;;;;6.67;2.20;;;;;;;-141.28;100.00;52110.94;5095911;28;20461;-75
2022/12/01 07:02:23;;;;;;;5.90;2.53;;;;;;;-141.28;100.00;51967.56;5094154;28;20549;-77
2022/12/01 07:04:50;;;;;;;4.50;2.30;;;;;;;-141.28;100.00;52163.94;5082517;28;20466;-75
2022/12/01 07:07:17;;;;;;;1.00;0.73;;;;;;;-141.28;100.00;52187.50;5096560;28;20999;-75
2022/12/01 07:09:46;;;;;;;1.80;1.00;;;;;;;-141.28;100.00;52173.78;5094155;28;20451;-78
2022/12/01 07:12:14;;;;;;;1.37;1.20;;;;;;;-141.28;100.00;52114.84;5094092;28;20448;-78
2022/12/01 07:14:41;;;;;;;5.97;2.77;;;;;;;-141.28;100.00;52124.66;5094127;28;20449;-76
2022/12/01 07:17:09;;;;;;;7.13;2.83;;;;;;;-141.28;100.00;52224.81;5096343;28;20449;-74
2022/12/01 07:19:36;;;;;;;3.03;1.97;;;;;;;-141.28;100.00;52207.16;5103124;28;20995;-73
2022/12/01 07:22:03;;;;;;;4.53;1.93;;;;;;;-141.28;100.00;52167.88;5095343;28;20465;-76
2022/12/01 07:24:30;;;;;;;2.20;1.30;;;;;;;-141.28;100.00;52211.09;5107816;28;20464;-75
2022/12/01 07:26:58;;;;;;;1.77;1.33;;;;;;;-141.28;100.00;52234.66;5093248;28;21179;-75
2022/12/01 07:29:26;;;;;;;1.77;1.07;;;;;;;-141.28;100.00;52218.94;5094566;28;20456;-76
2022/12/01 07:31:53;;;;;;;1.97;1.47;;;;;;;-141.28;100.00;52199.28;5113484;28;20437;-73
2022/12/01 07:34:20;;;;;;;4.40;2.40;;;;;;;-141.28;100.00;52093.25;5110877;28;20463;-76
2022/12/01 07:36:47;;;;;;;8.93;3.50;;;;;;;-141.28;100.00;52059.88;5093715;28;20533;-78
2022/12/01 07:39:14;;;;;;;4.23;2.67;;;;;;;-141.28;100.00;52220.91;5093117;28;20454;-78
2022/12/01 07:41:42;;;;;;;12.27;5.20;;;;;;;-141.28;100.00;52254.28;5102590;28;20449;-74
2022/12/01 07:44:09;;;;;;;22.40;7.97;;;;;;;-141.28;100.00;52230.72;5097881;28;20441;-75
2022/12/01 07:46:39;;;;;;;9.87;5.40;;;;;;;-141.28;100.00;52248.41;5093204;28;20452;-77
2022/12/01 07:49:11;;;;;;;8.77;4.77;;;;;;;-141.28;100.00;52211.09;5093745;28;20947;-77
2022/12/01 07:51:38;;;;;;;4.03;2.50;;;;;;;-141.28;100.00;52297.50;5099883;28;20445;-76
2022/12/01 07:54:06;;;;;;;3.53;2.17;;;;;;;-141.28;100.00;52279.81;5113544;28;20453;-77
2022/12/01 07:56:34;;;;;;;4.90;2.50;;;;;;;-141.28;100.00;52270.00;5082590;28;20538;-76
2022/12/01 07:59:01;;;;;;;4.87;1.70;;;;;;;-141.28;100.00;52275.88;5093429;28;20976;-79
2022/12/01 08:01:30;;;;;;;4.23;1.70;;;;;;;-141.28;100.00;52317.13;5079422;28;20454;-75
2022/12/01 08:03:59;;;;;;;4.63;2.00;;;;;;;-141.28;100.00;52271.97;5081923;28;20454;-77
2022/12/01 08:06:27;;;;;;;7.40;3.40;;;;;;;-141.28;100.00;52356.41;5080241;28;20938;-75
2022/12/01 08:08:54;;;;;;;5.70;3.27;;;;;;;-141.28;100.00;52356.41;5092952;28;20932;-74
2022/12/01 08:11:23;;;;;;;5.93;3.00;;;;;;;-141.28;100.00;52425.16;5092632;28;20453;-75
2022/12/01 08:13:51;;;;;;;4.70;1.83;;;;;;;-141.28;100.00;52376.06;5109238;28;20526;-75
2022/12/01 08:16:21;;;;;;;4.77;2.30;;;;;;;-141.28;100.00;52423.19;5079539;28;20453;-77
2022/12/01 08:18:48;;;;;;;4.37;2.27;;;;;;;-141.28;100.00;52431.03;5092594;28;20477;-75
2022/12/01 08:21:18;;;;;;;6.40;2.73;;;;;;;-141.28;100.00;52216.97;5080263;28;20542;-76
2022/12/01 08:23:46;;;;;;;2.97;1.50;;;;;;;-141.28;100.00;52211.09;5092926;28;20465;-75
2022/12/01 08:26:14;;;;;;;4.33;1.60;;;;;;;-141.28;100.00;52248.41;5092620;28;20992;-76
2022/12/01 08:28:43;;;;;;;3.73;1.70;;;;;;;-141.28;100.00;52301.41;5092433;28;20485;-75
2022/12/01 08:31:12;;;;;;;4.20;1.77;;;;;;;-141.28;100.00;52262.13;5092199;28;20460;-74
2022/12/01 08:33:39;;;;;;;4.67;1.90;;;;;;;-141.28;100.00;52279.81;5092463;28;20445;-75
2022/12/01 08:36:06;;;;;;;12.57;5.60;;;;;;;-141.28;100.00;52328.91;5092416;28;20803;-75
2022/12/01 08:38:36;;;;;;;4.23;2.10;;;;;;;-141.28;100.00;52248.41;5075334;28;20496;-78
2022/12/01 08:41:05;;;;;;;6.33;2.67;;;;;;;-141.28;100.00;52325.00;5072950;28;20446;-76
2022/12/01 08:43:33;;;;;;;4.90;1.93;;;;;;;-141.28;100.00;52301.41;5074626;28;20443;-77
2022/12/01 08:46:00;;;;;;;3.33;1.97;;;;;;;-141.28;100.00;52289.63;5107634;28;20458;-76
2022/12/01 08:48:28;;;;;;;3.37;1.93;;;;;;;-141.28;100.00;52301.41;5104346;28;20493;-75
2022/12/01 08:51:02;;;;;;;5.00;1.20;;;;;;;-141.28;100.00;52266.06;5091970;28;20453;-77
2022/12/01 08:53:29;;;;;;;1.83;1.27;;;;;;;-141.28;100.00;52360.34;5101604;28;20441;-75
2022/12/01 08:56:01;;;;;;;4.40;2.10;;;;;;;-141.28;100.00;52291.59;5095766;28;20944;-76
2022/12/01 08:58:29;;;;;;;6.20;2.23;;;;;;;-141.28;100.00;52083.44;5092198;28;20485;-74
2022/12/01 09:01:02;;;;;;;6.10;3.10;;;;;;;-141.28;100.00;52264.09;5092230;28;20460;-73
2022/12/01 09:03:29;;;;;;;2.50;1.37;;;;;;;-141.28;100.00;52256.25;5091923;28;20481;-77
2022/12/01 09:06:02;;;;;;;9.40;3.70;;;;;;;-141.28;100.00;52277.84;5092206;28;20445;-75
2022/12/01 09:08:32;;;;;;;14.67;5.77;;;;;;;-141.28;100.00;52317.13;5080841;28;20509;-78
2022/12/01 09:11:02;;;;;;;18.00;7.97;;;;;;;-141.28;100.00;52218.94;5078206;28;20458;-76
2022/12/01 09:13:30;;;;;;;11.23;5.57;;;;;;;-141.28;100.00;52234.66;5091389;28;20940;-74
2022/12/01 09:15:58;;;;;;;11.53;5.17;;;;;;;-141.28;100.00;52277.84;5091534;28;20940;-75
2022/12/01 09:18:25;;;;;;;18.60;8.10;;;;;;;-141.28;100.00;52222.88;5091146;28;20477;-77
2022/12/01 09:20:53;;;;;;;10.03;3.73;;;;;;;-141.28;100.00;52230.72;5089624;28;20481;-76
2022/12/01 09:23:22;;;;;;;3.23;1.57;;;;;;;-141.28;100.00;52171.81;5071784;28;20519;-75
2022/12/01 09:25:49;;;;;;;2.93;2.33;;;;;;;-141.28;100.00;52211.09;5074310;28;20450;-74
2022/12/01 09:28:18;;;;;;;3.93;2.73;;;;;;;-141.28;100.00;52085.41;5095273;28;20476;-76
2022/12/01 09:30:46;;;;;;;8.83;3.77;;;;;;;-141.28;100.00;52097.19;5108789;28;20452;-75
2022/12/01 09:33:14;;;;;;;30.83;9.63;;;;;;;-141.28;100.00;52124.66;5083910;28;20458;-75
2022/12/01 09:35:42;;;;;;;9.23;3.53;;;;;;;-141.28;100.00;52073.63;5091625;28;20457;-74
2022/12/01 09:38:10;;;;;;;14.17;5.10;;;;;;;-141.28;100.00;51995.06;5093768;28;20876;-79
2022/12/01 09:40:42;;;;;;;2.97;1.80;;;;;;;-141.28;100.00;51961.69;5111450;28;20506;-76
2022/12/01 09:43:20;;;;;;;3.30;1.80;;;;;;;-141.28;100.00;51940.06;5094158;28;20442;-75
2022/12/01 09:45:54;;;;;;;2.53;1.67;;;;;;;-141.28;100.00;51908.66;5092282;28;20446;-77
2022/12/01 09:48:29;;;;;;;6.10;1.90;;;;;;;-141.28;100.00;51724.06;5092273;28;20489;-75
2022/12/01 09:50:59;;;;;;;4.60;1.97;;;;;;;-141.28;100.00;51800.66;5091801;28;20558;-75
2022/12/01 09:53:30;;;;;;;3.60;2.10;;;;;;;-141.28;100.00;51753.53;5077108;28;20454;-74
2022/12/01 09:55:57;;;;;;;5.37;2.27;;;;;;;-141.28;100.00;51818.31;5090510;28;20456;-77
2022/12/01 09:58:30;;;;;;;3.20;1.97;;;;;;;-141.28;100.00;51782.97;5096941;28;20441;-72
2022/12/01 10:00:58;;;;;;;2.10;1.30;;;;;;;-141.28;100.00;51708.38;5116609;28;20483;-74
2022/12/01 10:03:33;;;;;;;2.97;1.83;;;;;;;-141.28;100.00;51724.06;5117348;28;20444;-74
2022/12/01 10:06:08;;;;;;;1.70;1.47;;;;;;;-141.28;100.00;51728.00;5114204;28;20514;-71
2022/12/01 10:08:41;;;;;;;4.90;1.40;;;;;;;-141.28;100.00;51633.75;5114945;27;20477;-72
2022/12/01 10:11:14;;;;;;;6.37;2.67;;;;;;;-141.28;100.00;51602.34;5109436;28;20495;-75
2022/12/01 10:13:46;;;;;;;4.83;3.00;;;;;;;-141.28;100.00;51496.31;5095783;28;20449;-75
2022/12/01 10:16:24;;;;;;;3.30;2.07;;;;;;;-141.28;100.00;51539.50;5098027;28;20445;-75
2022/12/01 10:18:58;;;;;;;2.70;1.90;;;;;;;-141.28;100.00;51472.75;5104255;28;20515;-73
2022/12/01 10:21:45;;;;;;;1.20;0.80;;;;;;;-141.28;100.00;51547.34;5091426;28;20465;-72
2022/12/01 10:24:27;;;;;;;3.47;1.50;;;;;;;-141.28;100.00;51512.00;5103593;28;20448;-76
2022/12/01 10:27:05;;;;;;;3.53;1.50;;;;;;;-141.28;100.00;51578.78;5092762;28;20454;-75
2022/12/01 10:29:47;;;;;;;2.07;1.60;;;;;;;-141.28;100.00;51531.66;5091568;28;20481;-74
2022/12/01 10:32:19;;;;;;;3.70;1.20;;;;;;;-141.28;100.00;51358.88;5091000;28;20438;-76
2022/12/01 10:34:49;;;;;;;3.13;2.03;;;;;;;-141.28;100.00;51488.44;5102344;28;20447;-79
2022/12/01 10:37:20;;;;;;;4.37;1.80;;;;;;;-141.28;100.00;51508.09;5100098;28;20477;-77
2022/12/01 10:39:51;;;;;;;2.30;1.60;;;;;;;-141.28;100.00;51519.88;5094870;28;20881;-78
2022/12/01 10:42:30;;;;;;;2.67;1.13;;;;;;;-141.28;100.00;51488.44;5094555;28;20457;-76
2022/12/01 10:45:03;;;;;;;4.30;1.50;;;;;;;-141.28;100.00;51508.09;5094829;28;20442;-75
2022/12/01 10:47:32;;;;;;;14.03;2.50;;;;;;;-141.28;100.00;51506.13;5099855;28;20962;-74
2022/12/01 10:49:59;;;;;;;26.63;2.63;;;;;;;-141.28;100.00;51521.84;5114186;28;20499;-75
2022/12/01 10:52:36;;;;;;;4.17;2.20;;;;;;;-141.28;100.00;51610.19;5094854;28;20449;-78
2022/12/01 10:55:06;;;;;;;3.97;2.10;;;;;;;-141.28;100.00;51551.28;5094490;28;20456;-75
2022/12/01 10:57:33;;;;;;;2.93;1.80;;;;;;;-141.28;100.00;51574.84;5094772;28;20449;-77
2022/12/01 11:00:06;;;;;;;3.83;2.00;;;;;;;-141.28;100.00;51618.03;5094385;28;20445;-75
2022/12/01 11:02:34;;;;;;;2.37;1.60;;;;;;;-141.28;100.00;51631.78;5093391;28;20445;-75
2022/12/01 11:05:04;;;;;;;1.67;1.10;;;;;;;-141.28;100.00;51600.38;5094222;28;20508;-76
2022/12/01 11:07:35;;;;;;;9.07;2.17;;;;;;;-141.28;100.00;51620.00;5098109;28;20450;-76
2022/12/01 11:10:14;;;;;;;3.80;1.50;;;;;;;-141.28;100.00;51639.63;5085198;28;20492;-74
2022/12/01 11:12:44;;;;;;;2.60;1.67;;;;;;;-141.28;100.00;51602.34;5099446;28;20446;-75
2022/12/01 11:15:22;;;;;;;3.47;1.70;;;;;;;-141.28;100.00;51567.00;5089767;28;20480;-76
2022/12/01 11:17:58;;;;;;;5.33;2.67;;;;;;;-141.28;100.00;51565.03;5097188;28;20467;-76
2022/12/01 11:20:42;;;;;;;15.97;6.10;;;;;;;-141.28;100.00;51519.88;5117496;28;20468;-75
2022/12/01 11:23:25;;;;;;;10.70;4.67;;;;;;;-141.28;100.00;51492.38;5097174;28;20438;-72
2022/12/01 11:26:14;;;;;;;14.40;6.37;;;;;;;-141.28;100.00;51417.78;5117308;28;20434;-75